sensor_id;sensor_type;location;lat;lon;timestamp;P1;durP1;ratioP1;P2;durP2;ratioP2
17451;SDS011;8843;48.838;9.324;2022-08-03T00:01:47;3.30;;;2.60;;
17451;SDS011;8843;48.838;9.324;2022-08-03T00:04:14;4.43;;;2.60;;
17451;SDS011;8843;48.838;9.324;2022-08-03T00:06:41;3.70;;;2.40;;
17451;SDS011;8843;48.838;9.324;2022-08-03T00:09:07;2.93;;;2.60;;
17451;SDS011;8843;48.838;9.324;2022-08-03T00:11:35;2.47;;;2.27;;
17451;SDS011;8843;48.838;9.324;2022-08-03T00:14:02;3.07;;;2.63;;
17451;SDS011;8843;48.838;9.324;2022-08-03T00:16:29;2.63;;;2.13;;
17451;SDS011;8843;48.838;9.324;2022-08-03T00:18:58;3.10;;;2.80;;
17451;SDS011;8843;48.838;9.324;2022-08-03T00:21:24;2.57;;;2.37;;
17451;SDS011;8843;48.838;9.324;2022-08-03T00:23:51;3.50;;;2.67;;
17451;SDS011;8843;48.838;9.324;2022-08-03T00:26:18;4.93;;;2.47;;
17451;SDS011;8843;48.838;9.324;2022-08-03T00:28:45;4.37;;;2.90;;
17451;SDS011;8843;48.838;9.324;2022-08-03T00:31:12;2.43;;;2.23;;
17451;SDS011;8843;48.838;9.324;2022-08-03T00:33:39;2.60;;;2.40;;
17451;SDS011;8843;48.838;9.324;2022-08-03T00:36:08;3.20;;;2.80;;
17451;SDS011;8843;48.838;9.324;2022-08-03T00:38:34;2.83;;;2.40;;
17451;SDS011;8843;48.838;9.324;2022-08-03T00:41:01;2.50;;;2.30;;
17451;SDS011;8843;48.838;9.324;2022-08-03T00:43:28;4.00;;;2.73;;
17451;SDS011;8843;48.838;9.324;2022-08-03T00:45:55;2.70;;;2.50;;
17451;SDS011;8843;48.838;9.324;2022-08-03T00:48:22;2.60;;;2.40;;
17451;SDS011;8843;48.838;9.324;2022-08-03T00:50:49;4.47;;;2.80;;
17451;SDS011;8843;48.838;9.324;2022-08-03T00:53:18;4.17;;;2.70;;
17451;SDS011;8843;48.838;9.324;2022-08-03T00:55:45;3.73;;;2.67;;
17451;SDS011;8843;48.838;9.324;2022-08-03T00:58:12;3.07;;;2.73;;
17451;SDS011;8843;48.838;9.324;2022-08-03T01:00:39;4.63;;;2.50;;
17451;SDS011;8843;48.838;9.324;2022-08-03T01:03:07;3.43;;;2.87;;
17451;SDS011;8843;48.838;9.324;2022-08-03T01:05:37;3.43;;;2.50;;
17451;SDS011;8843;48.838;9.324;2022-08-03T01:08:12;3.63;;;2.57;;
17451;SDS011;8843;48.838;9.324;2022-08-03T01:10:49;3.10;;;2.70;;
17451;SDS011;8843;48.838;9.324;2022-08-03T01:13:24;2.70;;;2.50;;
17451;SDS011;8843;48.838;9.324;2022-08-03T01:15:56;5.07;;;2.73;;
17451;SDS011;8843;48.838;9.324;2022-08-03T01:18:31;2.90;;;2.60;;
17451;SDS011;8843;48.838;9.324;2022-08-03T01:21:06;2.50;;;2.30;;
17451;SDS011;8843;48.838;9.324;2022-08-03T01:23:44;3.50;;;2.60;;
17451;SDS011;8843;48.838;9.324;2022-08-03T01:26:35;3.33;;;2.60;;
17451;SDS011;8843;48.838;9.324;2022-08-03T01:29:19;5.80;;;2.97;;
17451;SDS011;8843;48.838;9.324;2022-08-03T01:32:13;4.33;;;2.60;;
17451;SDS011;8843;48.838;9.324;2022-08-03T01:34:44;3.97;;;2.77;;
17451;SDS011;8843;48.838;9.324;2022-08-03T01:37:18;2.70;;;2.50;;
17451;SDS011;8843;48.838;9.324;2022-08-03T01:39:52;2.60;;;2.40;;
17451;SDS011;8843;48.838;9.324;2022-08-03T01:42:23;3.47;;;2.83;;
17451;SDS011;8843;48.838;9.324;2022-08-03T01:44:51;3.13;;;2.77;;
17451;SDS011;8843;48.838;9.324;2022-08-03T01:47:21;3.83;;;2.90;;
17451;SDS011;8843;48.838;9.324;2022-08-03T01:49:50;2.73;;;2.53;;
17451;SDS011;8843;48.838;9.324;2022-08-03T01:52:18;2.80;;;2.40;;
17451;SDS011;8843;48.838;9.324;2022-08-03T01:54:47;2.77;;;2.57;;
17451;SDS011;8843;48.838;9.324;2022-08-03T01:57:16;3.17;;;2.40;;
17451;SDS011;8843;48.838;9.324;2022-08-03T01:59:45;3.57;;;2.40;;
17451;SDS011;8843;48.838;9.324;2022-08-03T02:02:15;3.00;;;2.77;;
17451;SDS011;8843;48.838;9.324;2022-08-03T02:04:44;2.90;;;2.70;;
17451;SDS011;8843;48.838;9.324;2022-08-03T02:07:14;2.47;;;2.27;;
17451;SDS011;8843;48.838;9.324;2022-08-03T02:09:42;2.47;;;2.27;;
17451;SDS011;8843;48.838;9.324;2022-08-03T02:12:11;2.60;;;2.40;;
17451;SDS011;8843;48.838;9.324;2022-08-03T02:14:40;3.90;;;2.40;;
17451;SDS011;8843;48.838;9.324;2022-08-03T02:17:09;3.23;;;2.97;;
17451;SDS011;8843;48.838;9.324;2022-08-03T02:19:37;2.47;;;2.27;;
17451;SDS011;8843;48.838;9.324;2022-08-03T02:22:07;5.00;;;2.67;;
17451;SDS011;8843;48.838;9.324;2022-08-03T02:24:36;3.77;;;2.70;;
17451;SDS011;8843;48.838;9.324;2022-08-03T02:27:04;3.10;;;2.40;;
17451;SDS011;8843;48.838;9.324;2022-08-03T02:29:36;4.30;;;2.63;;
17451;SDS011;8843;48.838;9.324;2022-08-03T02:32:07;2.90;;;2.60;;
17451;SDS011;8843;48.838;9.324;2022-08-03T02:34:37;3.03;;;2.30;;
17451;SDS011;8843;48.838;9.324;2022-08-03T02:37:08;3.13;;;2.70;;
17451;SDS011;8843;48.838;9.324;2022-08-03T02:39:36;3.93;;;2.30;;
17451;SDS011;8843;48.838;9.324;2022-08-03T02:42:06;3.47;;;2.47;;
17451;SDS011;8843;48.838;9.324;2022-08-03T02:44:35;4.40;;;2.50;;
17451;SDS011;8843;48.838;9.324;2022-08-03T02:47:05;2.77;;;2.57;;
17451;SDS011;8843;48.838;9.324;2022-08-03T02:49:36;2.90;;;2.60;;
17451;SDS011;8843;48.838;9.324;2022-08-03T02:52:04;2.47;;;2.27;;
17451;SDS011;8843;48.838;9.324;2022-08-03T02:54:37;3.10;;;2.50;;
17451;SDS011;8843;48.838;9.324;2022-08-03T02:57:05;2.70;;;2.50;;
17451;SDS011;8843;48.838;9.324;2022-08-03T02:59:34;3.10;;;2.57;;
17451;SDS011;8843;48.838;9.324;2022-08-03T03:02:02;2.80;;;2.60;;
17451;SDS011;8843;48.838;9.324;2022-08-03T03:04:30;3.27;;;2.97;;
17451;SDS011;8843;48.838;9.324;2022-08-03T03:06:58;3.23;;;2.80;;
17451;SDS011;8843;48.838;9.324;2022-08-03T03:09:27;2.60;;;2.40;;
17451;SDS011;8843;48.838;9.324;2022-08-03T03:11:55;3.03;;;2.43;;
17451;SDS011;8843;48.838;9.324;2022-08-03T03:14:22;2.90;;;2.60;;
17451;SDS011;8843;48.838;9.324;2022-08-03T03:16:50;3.10;;;2.80;;
17451;SDS011;8843;48.838;9.324;2022-08-03T03:19:18;2.80;;;2.60;;
17451;SDS011;8843;48.838;9.324;2022-08-03T03:21:46;2.80;;;2.60;;
17451;SDS011;8843;48.838;9.324;2022-08-03T03:24:13;3.33;;;2.50;;
17451;SDS011;8843;48.838;9.324;2022-08-03T03:26:43;2.67;;;2.43;;
17451;SDS011;8843;48.838;9.324;2022-08-03T03:29:10;2.70;;;2.50;;
17451;SDS011;8843;48.838;9.324;2022-08-03T03:31:37;2.77;;;2.57;;
17451;SDS011;8843;48.838;9.324;2022-08-03T03:34:05;2.90;;;2.70;;
17451;SDS011;8843;48.838;9.324;2022-08-03T03:36:32;2.80;;;2.60;;
17451;SDS011;8843;48.838;9.324;2022-08-03T03:38:59;3.27;;;2.80;;
17451;SDS011;8843;48.838;9.324;2022-08-03T03:41:26;2.90;;;2.60;;
17451;SDS011;8843;48.838;9.324;2022-08-03T03:43:54;3.10;;;2.80;;
17451;SDS011;8843;48.838;9.324;2022-08-03T03:46:21;4.97;;;2.67;;
17451;SDS011;8843;48.838;9.324;2022-08-03T03:48:48;4.37;;;2.80;;
17451;SDS011;8843;48.838;9.324;2022-08-03T03:51:15;3.47;;;2.70;;
17451;SDS011;8843;48.838;9.324;2022-08-03T03:53:53;3.43;;;2.70;;
17451;SDS011;8843;48.838;9.324;2022-08-03T03:56:23;2.80;;;2.60;;
17451;SDS011;8843;48.838;9.324;2022-08-03T03:58:50;2.87;;;2.67;;
17451;SDS011;8843;48.838;9.324;2022-08-03T04:01:19;2.97;;;2.50;;
17451;SDS011;8843;48.838;9.324;2022-08-03T04:03:46;2.93;;;2.73;;
17451;SDS011;8843;48.838;9.324;2022-08-03T04:06:13;2.60;;;2.40;;
17451;SDS011;8843;48.838;9.324;2022-08-03T04:08:58;3.47;;;2.50;;
17451;SDS011;8843;48.838;9.324;2022-08-03T04:11:40;2.97;;;2.67;;
17451;SDS011;8843;48.838;9.324;2022-08-03T04:14:14;2.97;;;2.77;;
17451;SDS011;8843;48.838;9.324;2022-08-03T04:16:45;3.00;;;2.80;;
17451;SDS011;8843;48.838;9.324;2022-08-03T04:19:18;2.63;;;2.43;;
17451;SDS011;8843;48.838;9.324;2022-08-03T04:21:51;3.53;;;2.63;;
17451;SDS011;8843;48.838;9.324;2022-08-03T04:24:20;2.60;;;2.40;;
17451;SDS011;8843;48.838;9.324;2022-08-03T04:26:48;2.90;;;2.60;;
17451;SDS011;8843;48.838;9.324;2022-08-03T04:29:16;3.20;;;2.50;;
17451;SDS011;8843;48.838;9.324;2022-08-03T04:31:47;2.80;;;2.60;;
17451;SDS011;8843;48.838;9.324;2022-08-03T04:34:15;2.90;;;2.70;;
17451;SDS011;8843;48.838;9.324;2022-08-03T04:36:44;2.50;;;2.30;;
17451;SDS011;8843;48.838;9.324;2022-08-03T04:39:15;3.33;;;3.03;;
17451;SDS011;8843;48.838;9.324;2022-08-03T04:41:48;4.50;;;2.93;;
17451;SDS011;8843;48.838;9.324;2022-08-03T04:44:18;4.10;;;2.73;;
17451;SDS011;8843;48.838;9.324;2022-08-03T04:46:48;2.77;;;2.57;;
17451;SDS011;8843;48.838;9.324;2022-08-03T04:49:15;3.23;;;2.93;;
17451;SDS011;8843;48.838;9.324;2022-08-03T04:51:43;3.50;;;2.80;;
17451;SDS011;8843;48.838;9.324;2022-08-03T04:54:10;3.27;;;2.97;;
17451;SDS011;8843;48.838;9.324;2022-08-03T04:56:38;3.20;;;3.00;;
17451;SDS011;8843;48.838;9.324;2022-08-03T04:59:05;2.90;;;2.57;;
17451;SDS011;8843;48.838;9.324;2022-08-03T05:01:32;3.43;;;2.77;;
17451;SDS011;8843;48.838;9.324;2022-08-03T05:04:01;3.23;;;2.80;;
17451;SDS011;8843;48.838;9.324;2022-08-03T05:06:28;5.03;;;2.80;;
17451;SDS011;8843;48.838;9.324;2022-08-03T05:08:55;3.07;;;2.77;;
17451;SDS011;8843;48.838;9.324;2022-08-03T05:11:22;3.53;;;3.23;;
17451;SDS011;8843;48.838;9.324;2022-08-03T05:13:49;3.63;;;2.47;;
17451;SDS011;8843;48.838;9.324;2022-08-03T05:16:16;3.27;;;2.97;;
17451;SDS011;8843;48.838;9.324;2022-08-03T05:18:43;6.63;;;3.20;;
17451;SDS011;8843;48.838;9.324;2022-08-03T05:21:11;4.60;;;3.33;;
17451;SDS011;8843;48.838;9.324;2022-08-03T05:23:40;4.40;;;3.10;;
17451;SDS011;8843;48.838;9.324;2022-08-03T05:26:07;3.87;;;3.10;;
17451;SDS011;8843;48.838;9.324;2022-08-03T05:28:35;3.30;;;3.00;;
17451;SDS011;8843;48.838;9.324;2022-08-03T05:31:03;4.60;;;3.00;;
17451;SDS011;8843;48.838;9.324;2022-08-03T05:33:29;2.90;;;2.70;;
17451;SDS011;8843;48.838;9.324;2022-08-03T05:35:56;3.30;;;3.00;;
17451;SDS011;8843;48.838;9.324;2022-08-03T05:38:26;3.30;;;2.83;;
17451;SDS011;8843;48.838;9.324;2022-08-03T05:40:53;2.87;;;2.57;;
17451;SDS011;8843;48.838;9.324;2022-08-03T05:43:20;5.20;;;3.30;;
17451;SDS011;8843;48.838;9.324;2022-08-03T05:45:46;3.30;;;3.00;;
17451;SDS011;8843;48.838;9.324;2022-08-03T05:48:13;5.03;;;3.33;;
17451;SDS011;8843;48.838;9.324;2022-08-03T05:50:41;3.83;;;3.40;;
17451;SDS011;8843;48.838;9.324;2022-08-03T05:53:07;4.23;;;3.83;;
17451;SDS011;8843;48.838;9.324;2022-08-03T05:55:36;4.97;;;3.30;;
17451;SDS011;8843;48.838;9.324;2022-08-03T05:58:03;3.60;;;3.07;;
17451;SDS011;8843;48.838;9.324;2022-08-03T06:00:30;4.83;;;3.20;;
17451;SDS011;8843;48.838;9.324;2022-08-03T06:02:57;5.00;;;3.27;;
17451;SDS011;8843;48.838;9.324;2022-08-03T06:05:24;4.53;;;3.70;;
17451;SDS011;8843;48.838;9.324;2022-08-03T06:07:52;4.47;;;3.87;;
17451;SDS011;8843;48.838;9.324;2022-08-03T06:10:19;4.90;;;3.50;;
17451;SDS011;8843;48.838;9.324;2022-08-03T06:12:48;6.43;;;3.50;;
17451;SDS011;8843;48.838;9.324;2022-08-03T06:15:15;3.40;;;3.10;;
17451;SDS011;8843;48.838;9.324;2022-08-03T06:17:46;4.00;;;3.50;;
17451;SDS011;8843;48.838;9.324;2022-08-03T06:20:14;5.03;;;3.30;;
17451;SDS011;8843;48.838;9.324;2022-08-03T06:22:43;3.30;;;3.00;;
17451;SDS011;8843;48.838;9.324;2022-08-03T06:25:10;5.70;;;3.63;;
17451;SDS011;8843;48.838;9.324;2022-08-03T06:27:37;5.50;;;3.40;;
17451;SDS011;8843;48.838;9.324;2022-08-03T06:30:07;3.63;;;3.27;;
17451;SDS011;8843;48.838;9.324;2022-08-03T06:32:35;4.87;;;2.90;;
17451;SDS011;8843;48.838;9.324;2022-08-03T06:35:02;5.20;;;3.00;;
17451;SDS011;8843;48.838;9.324;2022-08-03T06:37:30;2.97;;;2.67;;
17451;SDS011;8843;48.838;9.324;2022-08-03T06:39:57;3.87;;;2.80;;
17451;SDS011;8843;48.838;9.324;2022-08-03T06:42:24;4.57;;;2.93;;
17451;SDS011;8843;48.838;9.324;2022-08-03T06:45:07;3.30;;;3.00;;
17451;SDS011;8843;48.838;9.324;2022-08-03T06:48:05;5.10;;;3.30;;
17451;SDS011;8843;48.838;9.324;2022-08-03T06:50:44;5.90;;;3.07;;
17451;SDS011;8843;48.838;9.324;2022-08-03T06:53:22;3.53;;;2.80;;
17451;SDS011;8843;48.838;9.324;2022-08-03T06:56:11;4.33;;;2.67;;
17451;SDS011;8843;48.838;9.324;2022-08-03T06:58:52;3.80;;;2.77;;
17451;SDS011;8843;48.838;9.324;2022-08-03T07:01:38;3.47;;;2.73;;
17451;SDS011;8843;48.838;9.324;2022-08-03T07:04:38;3.43;;;2.67;;
17451;SDS011;8843;48.838;9.324;2022-08-03T07:07:22;3.27;;;2.67;;
17451;SDS011;8843;48.838;9.324;2022-08-03T07:10:10;2.40;;;2.20;;
17451;SDS011;8843;48.838;9.324;2022-08-03T07:12:57;3.60;;;2.50;;
17451;SDS011;8843;48.838;9.324;2022-08-03T07:15:33;2.77;;;2.57;;
17451;SDS011;8843;48.838;9.324;2022-08-03T07:18:22;4.07;;;2.40;;
17451;SDS011;8843;48.838;9.324;2022-08-03T07:20:55;2.97;;;2.23;;
17451;SDS011;8843;48.838;9.324;2022-08-03T07:23:43;2.77;;;2.50;;
17451;SDS011;8843;48.838;9.324;2022-08-03T07:26:32;3.97;;;2.60;;
17451;SDS011;8843;48.838;9.324;2022-08-03T07:29:17;2.80;;;2.53;;
17451;SDS011;8843;48.838;9.324;2022-08-03T07:32:16;2.63;;;2.43;;
17451;SDS011;8843;48.838;9.324;2022-08-03T07:34:53;3.97;;;2.33;;
17451;SDS011;8843;48.838;9.324;2022-08-03T07:37:40;2.30;;;2.10;;
17451;SDS011;8843;48.838;9.324;2022-08-03T07:40:17;2.73;;;2.40;;
17451;SDS011;8843;48.838;9.324;2022-08-03T07:42:49;3.33;;;2.70;;
17451;SDS011;8843;48.838;9.324;2022-08-03T07:45:29;2.60;;;2.40;;
17451;SDS011;8843;48.838;9.324;2022-08-03T07:48:05;2.50;;;2.30;;
17451;SDS011;8843;48.838;9.324;2022-08-03T07:50:54;2.57;;;2.03;;
17451;SDS011;8843;48.838;9.324;2022-08-03T07:53:21;2.57;;;2.37;;
17451;SDS011;8843;48.838;9.324;2022-08-03T07:55:48;2.50;;;2.30;;
17451;SDS011;8843;48.838;9.324;2022-08-03T07:58:15;2.50;;;2.30;;
17451;SDS011;8843;48.838;9.324;2022-08-03T08:00:42;2.30;;;2.10;;
17451;SDS011;8843;48.838;9.324;2022-08-03T08:03:09;3.77;;;2.70;;
17451;SDS011;8843;48.838;9.324;2022-08-03T08:05:37;2.60;;;2.40;;
17451;SDS011;8843;48.838;9.324;2022-08-03T08:08:05;3.50;;;2.50;;
17451;SDS011;8843;48.838;9.324;2022-08-03T08:10:32;2.47;;;2.10;;
17451;SDS011;8843;48.838;9.324;2022-08-03T08:13:00;2.30;;;2.10;;
17451;SDS011;8843;48.838;9.324;2022-08-03T08:15:27;2.30;;;2.10;;
17451;SDS011;8843;48.838;9.324;2022-08-03T08:17:54;2.87;;;2.67;;
17451;SDS011;8843;48.838;9.324;2022-08-03T08:20:24;3.70;;;2.10;;
17451;SDS011;8843;48.838;9.324;2022-08-03T08:22:54;6.33;;;2.00;;
17451;SDS011;8843;48.838;9.324;2022-08-03T08:25:23;2.20;;;2.00;;
17451;SDS011;8843;48.838;9.324;2022-08-03T08:27:50;2.50;;;2.30;;
17451;SDS011;8843;48.838;9.324;2022-08-03T08:30:19;2.90;;;1.90;;
17451;SDS011;8843;48.838;9.324;2022-08-03T08:32:48;2.80;;;2.30;;
17451;SDS011;8843;48.838;9.324;2022-08-03T08:35:16;2.30;;;2.10;;
17451;SDS011;8843;48.838;9.324;2022-08-03T08:37:44;1.87;;;1.77;;
17451;SDS011;8843;48.838;9.324;2022-08-03T08:40:11;2.20;;;1.57;;
17451;SDS011;8843;48.838;9.324;2022-08-03T08:42:40;5.07;;;2.13;;
17451;SDS011;8843;48.838;9.324;2022-08-03T08:45:08;2.23;;;1.80;;
17451;SDS011;8843;48.838;9.324;2022-08-03T08:47:37;2.57;;;1.83;;
17451;SDS011;8843;48.838;9.324;2022-08-03T08:50:05;1.73;;;1.63;;
17451;SDS011;8843;48.838;9.324;2022-08-03T08:52:34;1.60;;;1.50;;
17451;SDS011;8843;48.838;9.324;2022-08-03T08:55:02;4.40;;;1.90;;
17451;SDS011;8843;48.838;9.324;2022-08-03T08:57:32;2.00;;;1.90;;
17451;SDS011;8843;48.838;9.324;2022-08-03T09:00:03;1.60;;;1.50;;
17451;SDS011;8843;48.838;9.324;2022-08-03T09:02:33;2.60;;;1.90;;
17451;SDS011;8843;48.838;9.324;2022-08-03T09:05:00;1.63;;;1.53;;
17451;SDS011;8843;48.838;9.324;2022-08-03T09:07:28;2.40;;;2.20;;
17451;SDS011;8843;48.838;9.324;2022-08-03T09:09:55;3.20;;;1.67;;
17451;SDS011;8843;48.838;9.324;2022-08-03T09:12:22;2.03;;;1.77;;
17451;SDS011;8843;48.838;9.324;2022-08-03T09:14:49;1.97;;;1.77;;
17451;SDS011;8843;48.838;9.324;2022-08-03T09:17:17;2.33;;;2.10;;
17451;SDS011;8843;48.838;9.324;2022-08-03T09:19:47;1.93;;;1.73;;
17451;SDS011;8843;48.838;9.324;2022-08-03T09:22:31;2.07;;;1.80;;
17451;SDS011;8843;48.838;9.324;2022-08-03T09:24:59;2.20;;;2.00;;
17451;SDS011;8843;48.838;9.324;2022-08-03T09:27:28;2.53;;;1.63;;
17451;SDS011;8843;48.838;9.324;2022-08-03T09:30:10;2.27;;;1.50;;
17451;SDS011;8843;48.838;9.324;2022-08-03T09:32:40;2.23;;;1.90;;
17451;SDS011;8843;48.838;9.324;2022-08-03T09:35:09;1.87;;;1.63;;
17451;SDS011;8843;48.838;9.324;2022-08-03T09:37:36;1.70;;;1.60;;
17451;SDS011;8843;48.838;9.324;2022-08-03T09:40:03;3.40;;;1.80;;
17451;SDS011;8843;48.838;9.324;2022-08-03T09:42:31;1.70;;;1.57;;
17451;SDS011;8843;48.838;9.324;2022-08-03T09:45:02;2.00;;;1.80;;
17451;SDS011;8843;48.838;9.324;2022-08-03T09:47:31;1.70;;;1.60;;
17451;SDS011;8843;48.838;9.324;2022-08-03T09:50:00;1.97;;;1.57;;
17451;SDS011;8843;48.838;9.324;2022-08-03T09:52:32;2.17;;;1.60;;
17451;SDS011;8843;48.838;9.324;2022-08-03T09:55:00;1.70;;;1.60;;
17451;SDS011;8843;48.838;9.324;2022-08-03T09:57:33;1.87;;;1.53;;
17451;SDS011;8843;48.838;9.324;2022-08-03T10:00:05;2.57;;;1.87;;
17451;SDS011;8843;48.838;9.324;2022-08-03T10:02:36;2.93;;;1.47;;
17451;SDS011;8843;48.838;9.324;2022-08-03T10:05:06;2.33;;;1.70;;
17451;SDS011;8843;48.838;9.324;2022-08-03T10:07:41;2.57;;;1.97;;
17451;SDS011;8843;48.838;9.324;2022-08-03T10:10:09;3.13;;;1.53;;
17451;SDS011;8843;48.838;9.324;2022-08-03T10:12:36;1.50;;;1.40;;
17451;SDS011;8843;48.838;9.324;2022-08-03T10:15:05;1.70;;;1.60;;
17451;SDS011;8843;48.838;9.324;2022-08-03T10:17:33;1.73;;;1.60;;
17451;SDS011;8843;48.838;9.324;2022-08-03T10:20:01;3.30;;;1.70;;
17451;SDS011;8843;48.838;9.324;2022-08-03T10:22:32;1.50;;;1.40;;
17451;SDS011;8843;48.838;9.324;2022-08-03T10:25:02;1.43;;;1.33;;
17451;SDS011;8843;48.838;9.324;2022-08-03T10:27:33;1.83;;;1.60;;
17451;SDS011;8843;48.838;9.324;2022-08-03T10:30:03;1.80;;;1.70;;
17451;SDS011;8843;48.838;9.324;2022-08-03T10:32:33;1.90;;;1.80;;
17451;SDS011;8843;48.838;9.324;2022-08-03T10:35:03;2.40;;;2.20;;
17451;SDS011;8843;48.838;9.324;2022-08-03T10:37:36;2.20;;;1.93;;
17451;SDS011;8843;48.838;9.324;2022-08-03T10:40:08;1.70;;;1.60;;
17451;SDS011;8843;48.838;9.324;2022-08-03T10:42:37;2.00;;;1.63;;
17451;SDS011;8843;48.838;9.324;2022-08-03T10:45:08;2.30;;;1.80;;
17451;SDS011;8843;48.838;9.324;2022-08-03T10:47:40;1.70;;;1.60;;
17451;SDS011;8843;48.838;9.324;2022-08-03T10:50:07;2.03;;;1.90;;
17451;SDS011;8843;48.838;9.324;2022-08-03T10:52:42;2.63;;;1.70;;
17451;SDS011;8843;48.838;9.324;2022-08-03T10:55:29;2.10;;;1.90;;
17451;SDS011;8843;48.838;9.324;2022-08-03T10:58:14;1.70;;;1.60;;
17451;SDS011;8843;48.838;9.324;2022-08-03T11:01:09;2.67;;;1.57;;
17451;SDS011;8843;48.838;9.324;2022-08-03T11:06:41;1.70;;;1.60;;
17451;SDS011;8843;48.838;9.324;2022-08-03T11:09:17;1.70;;;1.60;;
17451;SDS011;8843;48.838;9.324;2022-08-03T11:11:45;1.70;;;1.60;;
17451;SDS011;8843;48.838;9.324;2022-08-03T11:14:14;2.90;;;1.63;;
17451;SDS011;8843;48.838;9.324;2022-08-03T11:16:43;1.67;;;1.57;;
17451;SDS011;8843;48.838;9.324;2022-08-03T11:19:14;1.77;;;1.60;;
17451;SDS011;8843;48.838;9.324;2022-08-03T11:21:56;1.70;;;1.60;;
17451;SDS011;8843;48.838;9.324;2022-08-03T11:27:24;2.87;;;1.87;;
17451;SDS011;8843;48.838;9.324;2022-08-03T11:29:56;2.10;;;1.90;;
17451;SDS011;8843;48.838;9.324;2022-08-03T11:35:22;2.30;;;1.60;;
17451;SDS011;8843;48.838;9.324;2022-08-03T11:38:01;2.40;;;1.80;;
17451;SDS011;8843;48.838;9.324;2022-08-03T11:40:37;2.67;;;1.87;;
17451;SDS011;8843;48.838;9.324;2022-08-03T11:43:06;3.67;;;1.90;;
17451;SDS011;8843;48.838;9.324;2022-08-03T11:45:34;2.37;;;1.70;;
17451;SDS011;8843;48.838;9.324;2022-08-03T11:48:11;2.03;;;1.60;;
17451;SDS011;8843;48.838;9.324;2022-08-03T11:50:39;1.73;;;1.63;;
17451;SDS011;8843;48.838;9.324;2022-08-03T11:53:11;1.87;;;1.77;;
17451;SDS011;8843;48.838;9.324;2022-08-03T11:55:41;2.27;;;1.97;;
17451;SDS011;8843;48.838;9.324;2022-08-03T11:58:16;2.43;;;2.23;;
17451;SDS011;8843;48.838;9.324;2022-08-03T12:00:44;2.20;;;2.00;;
17451;SDS011;8843;48.838;9.324;2022-08-03T12:03:11;1.87;;;1.67;;
17451;SDS011;8843;48.838;9.324;2022-08-03T12:05:44;2.10;;;1.90;;
17451;SDS011;8843;48.838;9.324;2022-08-03T12:08:13;2.40;;;1.83;;
17451;SDS011;8843;48.838;9.324;2022-08-03T12:10:46;2.03;;;1.80;;
17451;SDS011;8843;48.838;9.324;2022-08-03T12:13:15;2.03;;;1.90;;
17451;SDS011;8843;48.838;9.324;2022-08-03T12:15:43;3.10;;;2.03;;
17451;SDS011;8843;48.838;9.324;2022-08-03T12:18:16;2.00;;;1.80;;
17451;SDS011;8843;48.838;9.324;2022-08-03T12:20:44;1.93;;;1.73;;
17451;SDS011;8843;48.838;9.324;2022-08-03T12:23:12;2.13;;;1.70;;
17451;SDS011;8843;48.838;9.324;2022-08-03T12:25:40;1.60;;;1.50;;
17451;SDS011;8843;48.838;9.324;2022-08-03T12:28:10;3.00;;;1.80;;
17451;SDS011;8843;48.838;9.324;2022-08-03T12:30:43;4.07;;;2.40;;
17451;SDS011;8843;48.838;9.324;2022-08-03T12:33:20;1.70;;;1.60;;
17451;SDS011;8843;48.838;9.324;2022-08-03T12:35:49;2.60;;;1.83;;
17451;SDS011;8843;48.838;9.324;2022-08-03T12:38:28;2.80;;;1.60;;
17451;SDS011;8843;48.838;9.324;2022-08-03T12:40:57;2.00;;;1.70;;
17451;SDS011;8843;48.838;9.324;2022-08-03T12:43:26;1.60;;;1.47;;
17451;SDS011;8843;48.838;9.324;2022-08-03T12:46:06;2.07;;;1.90;;
17451;SDS011;8843;48.838;9.324;2022-08-03T12:51:32;2.63;;;1.97;;
17451;SDS011;8843;48.838;9.324;2022-08-03T12:54:00;2.30;;;2.10;;
17451;SDS011;8843;48.838;9.324;2022-08-03T12:56:28;4.77;;;1.80;;
17451;SDS011;8843;48.838;9.324;2022-08-03T12:58:56;2.23;;;1.70;;
17451;SDS011;8843;48.838;9.324;2022-08-03T13:01:23;1.50;;;1.40;;
17451;SDS011;8843;48.838;9.324;2022-08-03T13:03:53;2.00;;;1.73;;
17451;SDS011;8843;48.838;9.324;2022-08-03T13:06:21;1.77;;;1.63;;
17451;SDS011;8843;48.838;9.324;2022-08-03T13:08:49;2.10;;;1.73;;
17451;SDS011;8843;48.838;9.324;2022-08-03T13:11:26;1.80;;;1.70;;
17451;SDS011;8843;48.838;9.324;2022-08-03T13:13:54;2.53;;;1.90;;
17451;SDS011;8843;48.838;9.324;2022-08-03T13:16:22;1.90;;;1.80;;
17451;SDS011;8843;48.838;9.324;2022-08-03T13:18:49;2.03;;;1.90;;
17451;SDS011;8843;48.838;9.324;2022-08-03T13:21:18;1.87;;;1.77;;
17451;SDS011;8843;48.838;9.324;2022-08-03T13:23:46;2.00;;;1.77;;
17451;SDS011;8843;48.838;9.324;2022-08-03T13:26:14;2.30;;;1.87;;
17451;SDS011;8843;48.838;9.324;2022-08-03T13:28:40;2.93;;;1.60;;
17451;SDS011;8843;48.838;9.324;2022-08-03T13:31:07;1.87;;;1.77;;
17451;SDS011;8843;48.838;9.324;2022-08-03T13:33:36;2.43;;;1.70;;
17451;SDS011;8843;48.838;9.324;2022-08-03T13:36:04;1.50;;;1.40;;
17451;SDS011;8843;48.838;9.324;2022-08-03T13:38:32;1.70;;;1.60;;
17451;SDS011;8843;48.838;9.324;2022-08-03T13:40:59;1.60;;;1.50;;
17451;SDS011;8843;48.838;9.324;2022-08-03T13:43:27;1.50;;;1.40;;
17451;SDS011;8843;48.838;9.324;2022-08-03T13:45:54;1.60;;;1.50;;
17451;SDS011;8843;48.838;9.324;2022-08-03T13:48:21;3.03;;;1.73;;
17451;SDS011;8843;48.838;9.324;2022-08-03T13:50:49;2.67;;;1.50;;
17451;SDS011;8843;48.838;9.324;2022-08-03T13:53:16;1.40;;;1.30;;
17451;SDS011;8843;48.838;9.324;2022-08-03T13:55:43;2.70;;;1.50;;
17451;SDS011;8843;48.838;9.324;2022-08-03T13:58:10;1.70;;;1.60;;
17451;SDS011;8843;48.838;9.324;2022-08-03T14:00:37;1.53;;;1.43;;
17451;SDS011;8843;48.838;9.324;2022-08-03T14:03:04;1.73;;;1.63;;
17451;SDS011;8843;48.838;9.324;2022-08-03T14:05:32;1.60;;;1.50;;
17451;SDS011;8843;48.838;9.324;2022-08-03T14:08:01;1.47;;;1.37;;
17451;SDS011;8843;48.838;9.324;2022-08-03T14:10:29;2.20;;;1.70;;
17451;SDS011;8843;48.838;9.324;2022-08-03T14:12:56;2.93;;;2.03;;
17451;SDS011;8843;48.838;9.324;2022-08-03T14:15:24;1.50;;;1.40;;
17451;SDS011;8843;48.838;9.324;2022-08-03T14:17:52;1.57;;;1.43;;
17451;SDS011;8843;48.838;9.324;2022-08-03T14:20:19;2.07;;;1.57;;
17451;SDS011;8843;48.838;9.324;2022-08-03T14:22:46;2.33;;;1.80;;
17451;SDS011;8843;48.838;9.324;2022-08-03T14:25:15;1.50;;;1.40;;
17451;SDS011;8843;48.838;9.324;2022-08-03T14:27:41;1.83;;;1.37;;
17451;SDS011;8843;48.838;9.324;2022-08-03T14:30:09;1.60;;;1.50;;
17451;SDS011;8843;48.838;9.324;2022-08-03T14:32:36;2.80;;;1.60;;
17451;SDS011;8843;48.838;9.324;2022-08-03T14:35:03;1.40;;;1.30;;
17451;SDS011;8843;48.838;9.324;2022-08-03T14:37:31;1.67;;;1.53;;
17451;SDS011;8843;48.838;9.324;2022-08-03T14:39:58;2.30;;;1.63;;
17451;SDS011;8843;48.838;9.324;2022-08-03T14:42:27;1.60;;;1.50;;
17451;SDS011;8843;48.838;9.324;2022-08-03T14:44:54;1.50;;;1.40;;
17451;SDS011;8843;48.838;9.324;2022-08-03T14:47:21;1.80;;;1.70;;
17451;SDS011;8843;48.838;9.324;2022-08-03T14:49:48;1.60;;;1.50;;
17451;SDS011;8843;48.838;9.324;2022-08-03T14:52:15;2.77;;;1.80;;
17451;SDS011;8843;48.838;9.324;2022-08-03T14:54:42;1.60;;;1.50;;
17451;SDS011;8843;48.838;9.324;2022-08-03T14:57:10;1.60;;;1.50;;
17451;SDS011;8843;48.838;9.324;2022-08-03T14:59:38;1.83;;;1.67;;
17451;SDS011;8843;48.838;9.324;2022-08-03T15:02:05;2.27;;;1.60;;
17451;SDS011;8843;48.838;9.324;2022-08-03T15:04:32;1.50;;;1.40;;
17451;SDS011;8843;48.838;9.324;2022-08-03T15:06:59;2.13;;;1.70;;
17451;SDS011;8843;48.838;9.324;2022-08-03T15:09:26;1.80;;;1.70;;
17451;SDS011;8843;48.838;9.324;2022-08-03T15:11:53;2.40;;;1.80;;
17451;SDS011;8843;48.838;9.324;2022-08-03T15:14:20;1.50;;;1.40;;
17451;SDS011;8843;48.838;9.324;2022-08-03T15:16:48;1.30;;;1.30;;
17451;SDS011;8843;48.838;9.324;2022-08-03T15:19:16;2.23;;;2.00;;
17451;SDS011;8843;48.838;9.324;2022-08-03T15:21:42;1.60;;;1.50;;
17451;SDS011;8843;48.838;9.324;2022-08-03T15:24:09;1.70;;;1.60;;
17451;SDS011;8843;48.838;9.324;2022-08-03T15:26:36;1.53;;;1.40;;
17451;SDS011;8843;48.838;9.324;2022-08-03T15:29:03;1.50;;;1.40;;
17451;SDS011;8843;48.838;9.324;2022-08-03T15:31:32;2.43;;;1.50;;